Time;durP1;ratioP1;P1;durP2;ratioP2;P2;SDS_P1;SDS_P2;PMS_P1;PMS_P2;Temp;Humidity;BMP_temperature;BMP_pressure;BME280_temperature;BME280_humidity;BME280_pressure;Samples;Min_cycle;Max_cycle;Signal;HPM_P1;HPM_P2
2022/03/26 00:01:34;;;;;;;139.30;48.63;;;;;;;;;;5069890;28;20045;-79
2022/03/26 00:04:02;;;;;;;134.15;48.83;;;;;;;;;;5068159;28;20159;-79
2022/03/26 00:06:30;;;;;;;131.55;48.60;;;;;;;;;;5069332;28;20051;-79
2022/03/26 00:09:02;;;;;;;138.88;48.17;;;;;;;;;;5068451;28;20044;-79
2022/03/26 00:11:30;;;;;;;135.18;48.08;;;;;;;;;;5069552;28;20112;-81
2022/03/26 00:13:59;;;;;;;127.97;48.55;;;;;;;;;;5069831;28;20521;-80
2022/03/26 00:16:26;;;;;;;129.15;47.75;;;;;;;;;;5062158;28;20768;-76
2022/03/26 00:18:55;;;;;;;135.98;49.53;;;;;;;;;;5061428;28;20519;-76
2022/03/26 00:21:23;;;;;;;129.95;48.50;;;;;;;;;;5054064;28;20623;-75
2022/03/26 00:23:51;;;;;;;135.75;48.65;;;;;;;;;;5056658;28;20580;-75
2022/03/26 00:26:18;;;;;;;137.13;49.00;;;;;;;;;;5062066;28;20159;-75
2022/03/26 00:28:45;;;;;;;135.77;49.55;;;;;;;;;;5057453;28;20858;-75
2022/03/26 00:31:12;;;;;;;139.45;52.03;;;;;;;;;;5057444;28;20127;-75
2022/03/26 00:36:11;;;;;;;145.00;49.80;;;;;;;;;;5026088;28;20048;-80
2022/03/26 00:38:39;;;;;;;128.32;48.72;;;;;;;;;;5030283;28;20088;-80
2022/03/26 00:41:06;;;;;;;130.45;48.40;;;;;;;;;;5022527;28;20052;-75
2022/03/26 00:43:34;;;;;;;132.75;51.92;;;;;;;;;;5018004;28;20152;-76
2022/03/26 00:46:01;;;;;;;135.82;51.00;;;;;;;;;;5028534;28;20061;-75
2022/03/26 00:48:28;;;;;;;139.38;49.80;;;;;;;;;;5018858;28;20046;-76
2022/03/26 00:50:56;;;;;;;134.70;49.08;;;;;;;;;;5015656;28;20077;-75
2022/03/26 00:53:23;;;;;;;138.45;49.75;;;;;;;;;;5013668;28;20557;-75
2022/03/26 00:58:21;;;;;;;138.43;49.63;;;;;;;;;;4991814;28;20155;-76
2022/03/26 01:00:48;;;;;;;147.10;50.28;;;;;;;;;;4993516;28;20074;-75
2022/03/26 01:03:18;;;;;;;133.85;49.60;;;;;;;;;;4997557;28;20107;-76
2022/03/26 01:05:45;;;;;;;137.10;46.90;;;;;;;;;;4995380;28;20139;-75
2022/03/26 01:08:12;;;;;;;129.10;46.83;;;;;;;;;;4995822;28;20045;-75
2022/03/26 01:10:41;;;;;;;119.22;46.28;;;;;;;;;;4995726;28;20045;-75
2022/03/26 01:13:09;;;;;;;127.90;48.25;;;;;;;;;;4995579;28;20057;-75
2022/03/26 01:15:36;;;;;;;134.82;45.92;;;;;;;;;;5013816;28;20852;-75
2022/03/26 01:18:07;;;;;;;125.43;45.17;;;;;;;;;;4993691;28;20061;-75
2022/03/26 01:20:36;;;;;;;121.68;46.28;;;;;;;;;;5011968;28;20866;-75
2022/03/26 01:26:29;;;;;;;123.13;42.30;;;;;;;;;;5063809;22;20036;-80
2022/03/26 01:28:57;;;;;;;114.20;42.97;;;;;;;;;;5064507;28;20087;-81
2022/03/26 01:31:25;;;;;;;120.78;43.92;;;;;;;;;;5065731;28;20135;-81
2022/03/26 01:33:54;;;;;;;119.47;44.13;;;;;;;;;;5063578;28;20053;-80
2022/03/26 01:36:22;;;;;;;113.07;43.63;;;;;;;;;;5062546;28;20080;-81
2022/03/26 01:39:12;;;;;;;125.07;44.05;;;;;;;;;;5067955;28;20088;-80
2022/03/26 01:41:40;;;;;;;109.90;42.85;;;;;;;;;;5057815;28;20129;-75
2022/03/26 01:44:12;;;;;;;106.68;41.58;;;;;;;;;;5054776;28;20447;-75
2022/03/26 01:49:39;;;;;;;102.75;40.88;;;;;;;;;;5020268;22;20157;-80
2022/03/26 01:52:10;;;;;;;113.07;43.83;;;;;;;;;;5059402;28;20069;-80
2022/03/26 01:54:39;;;;;;;110.45;43.08;;;;;;;;;;5049651;28;20052;-81
2022/03/26 01:57:07;;;;;;;107.90;42.22;;;;;;;;;;5070788;22;20073;-75
2022/03/26 01:59:34;;;;;;;101.28;41.83;;;;;;;;;;5033007;28;20049;-80
2022/03/26 02:02:03;;;;;;;107.00;40.70;;;;;;;;;;5046820;28;20044;-80
2022/03/26 02:04:35;;;;;;;115.43;42.28;;;;;;;;;;5043186;28;20044;-80
2022/03/26 02:07:07;;;;;;;103.80;40.40;;;;;;;;;;5042981;28;20056;-80
2022/03/26 02:09:36;;;;;;;103.57;39.47;;;;;;;;;;5042165;28;20510;-80
2022/03/26 02:12:22;;;;;;;94.63;39.13;;;;;;;;;;5051195;28;20050;-80
2022/03/26 02:21:53;;;;;;;97.35;39.65;;;;;;;;;;5036870;28;20071;-76
2022/03/26 02:24:20;;;;;;;113.00;40.60;;;;;;;;;;5032029;28;20119;-76
2022/03/26 02:26:47;;;;;;;100.50;39.90;;;;;;;;;;5037595;28;20064;-76
2022/03/26 02:29:15;;;;;;;102.30;40.17;;;;;;;;;;5030331;28;20140;-76
2022/03/26 02:31:42;;;;;;;104.68;38.00;;;;;;;;;;5035220;28;20494;-75
2022/03/26 02:37:09;;;;;;;113.95;41.67;;;;;;;;;;5027314;28;20120;-75
2022/03/26 02:39:38;;;;;;;109.57;40.05;;;;;;;;;;5028511;28;20080;-76
2022/03/26 02:48:39;;;;;;;105.75;40.50;;;;;;;;;;4988574;28;20042;-76
2022/03/26 02:51:07;;;;;;;108.82;41.33;;;;;;;;;;4987976;28;20464;-76
2022/03/26 02:53:34;;;;;;;96.85;39.30;;;;;;;;;;4989690;28;20170;-76
2022/03/26 02:56:01;;;;;;;108.93;42.28;;;;;;;;;;4992424;28;20086;-75
2022/03/26 02:58:30;;;;;;;113.97;40.47;;;;;;;;;;4991258;28;20117;-75
2022/03/26 03:01:01;;;;;;;98.85;39.35;;;;;;;;;;5001687;28;20050;-75
2022/03/26 03:03:32;;;;;;;110.15;41.40;;;;;;;;;;4989375;28;20050;-76
2022/03/26 03:06:27;;;;;;;107.10;40.95;;;;;;;;;;4995978;28;20461;-75
2022/03/26 03:08:57;;;;;;;98.10;39.42;;;;;;;;;;4995881;28;20050;-79
2022/03/26 03:11:25;;;;;;;99.78;39.75;;;;;;;;;;5000645;28;20054;-79
2022/03/26 03:13:52;;;;;;;113.85;42.28;;;;;;;;;;4999954;28;20405;-79
2022/03/26 03:16:23;;;;;;;99.63;40.60;;;;;;;;;;5003700;28;20663;-79
2022/03/26 03:18:51;;;;;;;110.10;41.47;;;;;;;;;;5010609;28;20084;-80
2022/03/26 03:21:18;;;;;;;117.78;42.60;;;;;;;;;;5004146;28;20116;-80
2022/03/26 03:23:46;;;;;;;102.78;39.72;;;;;;;;;;5003014;28;20592;-79
2022/03/26 03:26:15;;;;;;;109.22;41.72;;;;;;;;;;5003484;28;20061;-76
2022/03/26 03:28:43;;;;;;;109.60;41.20;;;;;;;;;;4997713;28;20082;-76
2022/03/26 03:31:10;;;;;;;101.32;40.70;;;;;;;;;;5003076;28;20085;-80
2022/03/26 03:33:39;;;;;;;106.13;42.03;;;;;;;;;;5010696;28;20053;-80
2022/03/26 03:36:08;;;;;;;113.65;43.35;;;;;;;;;;5007690;28;20053;-81
2022/03/26 03:38:37;;;;;;;110.50;40.63;;;;;;;;;;5004910;28;20058;-81
2022/03/26 03:43:41;;;;;;;110.10;40.97;;;;;;;;;;5030228;28;20053;-76
2022/03/26 03:46:09;;;;;;;117.78;43.10;;;;;;;;;;5045743;28;20136;-77
2022/03/26 03:48:36;;;;;;;106.68;41.30;;;;;;;;;;5041881;28;20050;-76
2022/03/26 03:51:03;;;;;;;95.63;37.88;;;;;;;;;;5036944;28;20137;-76
2022/03/26 03:53:30;;;;;;;108.43;41.88;;;;;;;;;;5035982;28;20045;-76
2022/03/26 03:55:58;;;;;;;106.75;41.22;;;;;;;;;;5043574;28;21820;-76
2022/03/26 03:58:25;;;;;;;108.60;40.30;;;;;;;;;;5043983;22;20868;-76
2022/03/26 04:03:41;;;;;;;113.63;38.28;;;;;;;;;;5020946;28;20054;-76
2022/03/26 04:06:09;;;;;;;118.28;41.92;;;;;;;;;;5021676;28;20154;-76
2022/03/26 04:08:36;;;;;;;102.75;40.55;;;;;;;;;;5044910;28;20076;-80
2022/03/26 04:11:03;;;;;;;101.20;39.95;;;;;;;;;;5050911;28;20076;-81
2022/03/26 04:13:30;;;;;;;106.57;39.85;;;;;;;;;;5028493;28;20053;-81
2022/03/26 04:15:58;;;;;;;106.95;41.13;;;;;;;;;;5050321;28;20521;-79
2022/03/26 04:18:25;;;;;;;113.22;40.60;;;;;;;;;;5024361;28;20049;-79
2022/03/26 04:20:53;;;;;;;99.60;38.20;;;;;;;;;;5037667;28;20049;-79
2022/03/26 04:23:21;;;;;;;112.63;43.13;;;;;;;;;;5031199;28;20851;-80
2022/03/26 04:25:48;;;;;;;108.82;39.08;;;;;;;;;;5045113;28;20886;-79
2022/03/26 04:28:16;;;;;;;102.80;40.85;;;;;;;;;;5046751;28;20091;-80
2022/03/26 04:30:43;;;;;;;104.60;40.00;;;;;;;;;;5045279;28;20053;-80
2022/03/26 04:33:12;;;;;;;107.72;39.90;;;;;;;;;;5033799;28;20057;-80
2022/03/26 04:35:39;;;;;;;103.43;38.85;;;;;;;;;;5049184;28;20068;-79
2022/03/26 04:38:06;;;;;;;101.10;39.58;;;;;;;;;;5026163;28;20080;-80
2022/03/26 04:40:34;;;;;;;102.53;40.92;;;;;;;;;;5027072;28;20076;-80
2022/03/26 04:43:01;;;;;;;110.50;41.22;;;;;;;;;;5028726;28;20053;-80
2022/03/26 04:45:30;;;;;;;100.72;39.80;;;;;;;;;;5048541;28;20080;-79
2022/03/26 04:47:57;;;;;;;114.78;41.05;;;;;;;;;;5031364;28;20045;-79
2022/03/26 04:50:24;;;;;;;107.03;40.35;;;;;;;;;;5029301;28;20056;-81
2022/03/26 04:52:51;;;;;;;102.90;39.67;;;;;;;;;;5046165;28;20069;-80
2022/03/26 04:55:19;;;;;;;106.03;39.78;;;;;;;;;;5027001;28;20088;-81
2022/03/26 04:57:53;;;;;;;112.38;41.35;;;;;;;;;;5029391;28;20080;-80
2022/03/26 05:02:52;;;;;;;101.63;39.58;;;;;;;;;;4980872;28;20096;-76
2022/03/26 05:05:21;;;;;;;101.07;37.88;;;;;;;;;;4998465;28;20070;-77
2022/03/26 05:11:11;;;;;;;110.68;40.72;;;;;;;;;;4987537;28;20672;-82
2022/03/26 05:13:39;;;;;;;102.28;41.10;;;;;;;;;;5006898;28;20050;-80
2022/03/26 05:16:07;;;;;;;113.00;41.67;;;;;;;;;;4995650;28;20129;-82
2022/03/26 05:18:37;;;;;;;113.00;40.72;;;;;;;;;;5001185;28;20134;-80
2022/03/26 05:21:07;;;;;;;103.63;39.40;;;;;;;;;;4991001;28;20054;-80
2022/03/26 05:23:35;;;;;;;104.25;40.58;;;;;;;;;;4979041;28;20049;-79
2022/03/26 05:26:03;;;;;;;103.07;39.60;;;;;;;;;;4985935;28;20101;-79
2022/03/26 05:28:32;;;;;;;103.93;40.08;;;;;;;;;;4984191;28;20046;-78
2022/03/26 05:31:08;;;;;;;99.38;40.13;;;;;;;;;;4998783;28;20046;-78
2022/03/26 05:33:36;;;;;;;104.70;40.88;;;;;;;;;;5002702;28;20054;-78
2022/03/26 05:36:04;;;;;;;103.70;40.55;;;;;;;;;;4989338;28;20061;-78
2022/03/26 05:38:33;;;;;;;103.97;41.70;;;;;;;;;;5009483;23;20174;-77
2022/03/26 05:41:04;;;;;;;101.15;40.08;;;;;;;;;;5035744;28;20462;-79
2022/03/26 05:43:32;;;;;;;96.05;38.90;;;;;;;;;;5033621;28;20049;-76
2022/03/26 05:46:00;;;;;;;96.30;39.10;;;;;;;;;;5032153;28;20142;-76
2022/03/26 05:48:27;;;;;;;103.32;38.55;;;;;;;;;;5031059;28;20045;-76
2022/03/26 05:50:55;;;;;;;94.32;39.20;;;;;;;;;;5034154;28;20124;-77
2022/03/26 05:53:22;;;;;;;82.07;36.10;;;;;;;;;;5032284;28;20140;-76
2022/03/26 05:55:52;;;;;;;91.15;37.30;;;;;;;;;;5031331;28;20131;-76
2022/03/26 05:58:21;;;;;;;92.75;38.58;;;;;;;;;;5029815;28;20041;-76
2022/03/26 06:00:49;;;;;;;84.43;34.22;;;;;;;;;;5039069;22;20161;-77
2022/03/26 06:03:18;;;;;;;83.60;34.42;;;;;;;;;;5036452;28;20095;-77
2022/03/26 06:06:00;;;;;;;79.93;35.67;;;;;;;;;;5059118;22;20131;-78
2022/03/26 06:11:18;;;;;;;82.35;32.90;;;;;;;;;;5035297;28;20052;-76
2022/03/26 06:13:46;;;;;;;88.65;36.03;;;;;;;;;;5039007;28;20060;-76
2022/03/26 06:16:14;;;;;;;75.93;33.97;;;;;;;;;;5054697;28;20055;-76
2022/03/26 06:18:42;;;;;;;81.18;33.00;;;;;;;;;;5050523;28;20053;-77
2022/03/26 06:21:09;;;;;;;82.78;33.80;;;;;;;;;;5064401;28;20045;-76
2022/03/26 06:26:23;;;;;;;77.80;33.65;;;;;;;;;;5022471;28;20755;-79
2022/03/26 06:28:51;;;;;;;71.00;32.33;;;;;;;;;;5029279;28;20046;-78
2022/03/26 06:31:18;;;;;;;83.40;33.35;;;;;;;;;;5027564;28;20139;-78
2022/03/26 06:33:47;;;;;;;80.90;32.58;;;;;;;;;;5025373;28;20136;-78
2022/03/26 06:36:18;;;;;;;79.43;30.85;;;;;;;;;;5025962;28;20064;-79
2022/03/26 06:38:47;;;;;;;70.90;31.55;;;;;;;;;;5027012;28;20045;-79
2022/03/26 06:41:15;;;;;;;72.97;30.05;;;;;;;;;;5028218;28;20122;-79
2022/03/26 06:43:44;;;;;;;79.90;28.50;;;;;;;;;;5033479;28;20084;-80
2022/03/26 06:46:14;;;;;;;57.22;26.58;;;;;;;;;;5024639;28;20075;-76
2022/03/26 06:48:45;;;;;;;64.75;26.05;;;;;;;;;;5020319;28;20048;-76
2022/03/26 06:51:13;;;;;;;51.83;23.98;;;;;;;;;;5019942;28;20787;-76
2022/03/26 06:53:41;;;;;;;68.35;25.35;;;;;;;;;;5025033;28;20528;-76
2022/03/26 06:56:12;;;;;;;58.28;23.60;;;;;;;;;;5016615;28;20045;-78
2022/03/26 06:58:39;;;;;;;58.05;22.90;;;;;;;;;;5036455;28;20524;-76
2022/03/26 07:01:06;;;;;;;61.28;25.08;;;;;;;;;;5020326;28;20136;-76
2022/03/26 07:03:35;;;;;;;57.60;25.58;;;;;;;;;;5021073;28;20119;-73
2022/03/26 07:06:03;;;;;;;56.85;24.63;;;;;;;;;;5023760;28;20049;-78
2022/03/26 07:08:30;;;;;;;53.65;22.25;;;;;;;;;;5029862;28;20049;-79
2022/03/26 07:10:59;;;;;;;60.85;26.80;;;;;;;;;;5031119;28;20132;-79
2022/03/26 07:13:26;;;;;;;59.30;25.27;;;;;;;;;;5028713;28;20076;-79
2022/03/26 07:15:53;;;;;;;51.53;24.08;;;;;;;;;;5028961;28;20042;-78
2022/03/26 07:18:20;;;;;;;57.03;26.15;;;;;;;;;;5029406;28;20159;-77
2022/03/26 07:20:48;;;;;;;51.72;24.55;;;;;;;;;;5026465;28;20654;-76
2022/03/26 07:23:15;;;;;;;59.33;25.35;;;;;;;;;;5024223;28;20472;-79
2022/03/26 07:25:43;;;;;;;54.00;25.08;;;;;;;;;;5022720;28;20156;-78
2022/03/26 07:28:10;;;;;;;62.55;24.65;;;;;;;;;;5024099;28;20119;-79
2022/03/26 07:30:38;;;;;;;68.07;24.33;;;;;;;;;;5024499;28;20076;-84
2022/03/26 07:33:05;;;;;;;56.85;24.20;;;;;;;;;;5023466;28;20132;-80
2022/03/26 07:35:32;;;;;;;64.65;24.25;;;;;;;;;;5024387;28;20168;-85
2022/03/26 07:37:59;;;;;;;59.97;25.02;;;;;;;;;;5013592;28;20139;-80
2022/03/26 07:40:27;;;;;;;50.35;19.73;;;;;;;;;;5022411;28;20132;-78
2022/03/26 07:42:57;;;;;;;62.00;23.98;;;;;;;;;;5024579;28;20166;-80
2022/03/26 07:45:24;;;;;;;56.20;24.13;;;;;;;;;;5024582;28;20161;-80
2022/03/26 07:47:52;;;;;;;64.65;24.45;;;;;;;;;;5009468;28;20523;-79
2022/03/26 07:50:21;;;;;;;52.30;22.05;;;;;;;;;;5022790;28;20048;-80
2022/03/26 07:52:49;;;;;;;54.55;22.95;;;;;;;;;;5028403;28;20351;-79
2022/03/26 07:55:16;;;;;;;54.22;21.90;;;;;;;;;;5021483;28;20132;-81
2022/03/26 07:57:43;;;;;;;59.15;24.00;;;;;;;;;;5024322;28;20133;-83
2022/03/26 08:00:11;;;;;;;56.35;21.67;;;;;;;;;;5030362;28;20178;-84
2022/03/26 08:02:39;;;;;;;48.28;22.17;;;;;;;;;;5029612;28;20053;-84
2022/03/26 08:05:06;;;;;;;54.40;22.52;;;;;;;;;;5023310;28;20107;-85
2022/03/26 08:07:33;;;;;;;52.85;22.48;;;;;;;;;;5030405;28;21045;-84
2022/03/26 08:10:00;;;;;;;53.67;24.75;;;;;;;;;;5032003;28;20045;-86
2022/03/26 08:12:28;;;;;;;58.75;23.05;;;;;;;;;;5027655;28;20132;-86
2022/03/26 08:15:05;;;;;;;67.55;25.85;;;;;;;;;;5030603;28;20073;-86
2022/03/26 08:17:35;;;;;;;70.63;26.27;;;;;;;;;;5030415;28;20057;-87
2022/03/26 08:20:03;;;;;;;63.75;24.15;;;;;;;;;;5031830;28;20091;-86
2022/03/26 08:22:30;;;;;;;62.28;25.38;;;;;;;;;;5029616;28;20107;-81
2022/03/26 08:24:57;;;;;;;65.40;24.27;;;;;;;;;;5030728;28;20126;-82
2022/03/26 08:27:24;;;;;;;62.70;26.05;;;;;;;;;;5031633;28;20136;-81
2022/03/26 08:29:52;;;;;;;55.80;22.20;;;;;;;;;;5030680;28;20049;-82
2022/03/26 08:32:19;;;;;;;59.30;22.45;;;;;;;;;;5032743;28;21022;-81
2022/03/26 08:34:47;;;;;;;56.80;24.23;;;;;;;;;;5032203;28;20057;-83
2022/03/26 08:37:14;;;;;;;63.35;23.17;;;;;;;;;;5033262;28;20106;-83
2022/03/26 08:39:42;;;;;;;53.63;22.33;;;;;;;;;;5033254;28;20049;-83
2022/03/26 08:42:10;;;;;;;54.90;23.17;;;;;;;;;;5040474;28;20053;-82
2022/03/26 08:44:38;;;;;;;56.15;22.08;;;;;;;;;;5029636;28;20076;-83
2022/03/26 08:47:06;;;;;;;53.17;22.10;;;;;;;;;;5050393;28;20053;-83
2022/03/26 08:49:34;;;;;;;58.08;23.35;;;;;;;;;;5032357;28;20137;-84
2022/03/26 08:52:01;;;;;;;52.33;20.48;;;;;;;;;;5035189;28;20480;-84
2022/03/26 08:54:29;;;;;;;51.88;20.67;;;;;;;;;;5029764;28;20129;-88
2022/03/26 08:56:56;;;;;;;46.60;19.10;;;;;;;;;;5031375;28;20611;-87
2022/03/26 08:59:24;;;;;;;52.83;20.25;;;;;;;;;;5034682;28;20057;-86
2022/03/26 09:01:51;;;;;;;43.50;18.60;;;;;;;;;;5033844;28;20162;-88
2022/03/26 09:04:19;;;;;;;45.65;18.42;;;;;;;;;;5037817;28;20128;-86
2022/03/26 09:06:50;;;;;;;44.45;17.33;;;;;;;;;;5039340;28;20106;-88
2022/03/26 09:09:17;;;;;;;36.47;16.15;;;;;;;;;;5037570;28;20468;-87
2022/03/26 09:11:45;;;;;;;42.03;16.55;;;;;;;;;;5030678;28;20048;-87
2022/03/26 09:14:13;;;;;;;41.22;17.42;;;;;;;;;;5033492;28;20556;-87
2022/03/26 09:16:40;;;;;;;33.85;15.23;;;;;;;;;;5034160;28;20042;-86
2022/03/26 09:19:08;;;;;;;38.10;14.82;;;;;;;;;;5034651;28;20152;-87
2022/03/26 09:21:35;;;;;;;32.35;13.15;;;;;;;;;;5031828;28;20091;-87
2022/03/26 09:24:02;;;;;;;32.22;13.27;;;;;;;;;;5032489;28;20455;-86
2022/03/26 09:26:29;;;;;;;32.45;12.82;;;;;;;;;;5034984;28;20088;-87
2022/03/26 09:28:57;;;;;;;29.83;12.60;;;;;;;;;;5035022;28;20057;-86
2022/03/26 09:31:24;;;;;;;33.15;12.95;;;;;;;;;;5034807;28;20045;-88
2022/03/26 09:33:51;;;;;;;28.92;13.30;;;;;;;;;;5034319;28;20109;-88
2022/03/26 09:36:19;;;;;;;27.63;11.65;;;;;;;;;;5035961;28;20131;-88
2022/03/26 09:38:46;;;;;;;30.58;12.45;;;;;;;;;;5031279;28;20057;-75
2022/03/26 09:41:16;;;;;;;24.23;11.15;;;;;;;;;;5024059;28;20059;-75
2022/03/26 09:43:43;;;;;;;24.73;10.32;;;;;;;;;;5025475;28;20497;-74
2022/03/26 09:46:11;;;;;;;28.85;11.57;;;;;;;;;;5027665;28;20136;-75
2022/03/26 09:48:39;;;;;;;30.73;11.43;;;;;;;;;;5025409;28;20704;-75
2022/03/26 09:51:08;;;;;;;21.90;10.23;;;;;;;;;;5027520;28;20084;-75
2022/03/26 09:53:35;;;;;;;21.75;9.60;;;;;;;;;;5026850;28;20056;-85
2022/03/26 09:56:03;;;;;;;21.80;10.38;;;;;;;;;;5031930;28;20091;-86
2022/03/26 09:58:30;;;;;;;25.67;10.82;;;;;;;;;;5031524;28;20053;-86
2022/03/26 10:00:57;;;;;;;29.45;11.50;;;;;;;;;;5042755;28;20139;-85
2022/03/26 10:03:25;;;;;;;20.13;10.10;;;;;;;;;;5033653;28;20060;-87
2022/03/26 10:06:07;;;;;;;28.67;11.55;;;;;;;;;;5035540;28;20042;-86
2022/03/26 10:08:38;;;;;;;22.83;10.00;;;;;;;;;;5031924;28;20068;-87
2022/03/26 10:11:09;;;;;;;23.90;11.05;;;;;;;;;;5030877;28;20037;-86
2022/03/26 10:13:43;;;;;;;26.40;10.50;;;;;;;;;;5027669;28;20075;-85
2022/03/26 10:16:12;;;;;;;22.55;10.65;;;;;;;;;;5034603;28;20127;-86
2022/03/26 10:18:46;;;;;;;22.27;9.40;;;;;;;;;;5034614;28;20154;-87
2022/03/26 10:21:14;;;;;;;24.90;10.75;;;;;;;;;;5030008;28;20454;-85
2022/03/26 10:23:45;;;;;;;19.17;10.05;;;;;;;;;;5032173;28;20501;-87
2022/03/26 10:26:13;;;;;;;24.50;10.93;;;;;;;;;;5029389;28;20593;-89
2022/03/26 10:28:41;;;;;;;22.85;10.45;;;;;;;;;;5028886;28;20873;-85
2022/03/26 10:34:01;;;;;;;22.67;9.38;;;;;;;;;;5031843;28;20045;-84
2022/03/26 10:36:29;;;;;;;18.55;10.23;;;;;;;;;;5047137;28;20060;-83
2022/03/26 10:38:56;;;;;;;24.58;10.50;;;;;;;;;;5030374;28;20053;-83
2022/03/26 10:41:23;;;;;;;19.85;9.95;;;;;;;;;;5026784;28;20051;-82
2022/03/26 10:44:06;;;;;;;28.52;10.68;;;;;;;;;;5033125;28;20084;-83
2022/03/26 10:46:40;;;;;;;22.67;11.55;;;;;;;;;;5029584;28;20137;-83
2022/03/26 10:49:08;;;;;;;20.73;9.57;;;;;;;;;;5027598;28;20137;-75
2022/03/26 10:51:36;;;;;;;21.17;10.32;;;;;;;;;;5026525;28;20049;-75
2022/03/26 10:54:10;;;;;;;18.42;9.45;;;;;;;;;;5025927;28;21010;-75
2022/03/26 10:56:37;;;;;;;20.50;8.63;;;;;;;;;;5023231;28;20057;-76
2022/03/26 10:59:05;;;;;;;18.88;8.52;;;;;;;;;;5025311;28;20128;-76
2022/03/26 11:01:32;;;;;;;21.30;8.73;;;;;;;;;;5023701;28;20057;-78
2022/03/26 11:03:59;;;;;;;18.50;8.90;;;;;;;;;;5023261;28;20057;-77
2022/03/26 11:06:27;;;;;;;20.73;8.68;;;;;;;;;;5022507;28;20136;-77
2022/03/26 11:09:00;;;;;;;20.08;8.23;;;;;;;;;;5023274;28;20119;-76
2022/03/26 11:11:28;;;;;;;26.85;8.45;;;;;;;;;;5023175;28;20566;-76
2022/03/26 11:13:59;;;;;;;20.08;8.93;;;;;;;;;;5025427;28;20462;-78
2022/03/26 11:16:30;;;;;;;17.13;7.68;;;;;;;;;;5028344;28;20149;-78
2022/03/26 11:19:13;;;;;;;;;;;;;;;;;;;;;
2022/03/26 11:22:31;;;;;;;17.60;8.15;;;;;;;;;;5027608;28;20102;-79
2022/03/26 11:26:03;;;;;;;23.33;8.73;;;;;;;;;;5023578;28;20052;-74
2022/03/26 11:28:45;;;;;;;21.13;9.32;;;;;;;;;;5016144;28;20131;-75
2022/03/26 11:31:32;;;;;;;19.70;7.45;;;;;;;;;;5031792;28;20666;-84
2022/03/26 11:34:03;;;;;;;17.15;8.10;;;;;;;;;;5031554;28;20048;-82
2022/03/26 11:37:04;;;;;;;20.58;9.70;;;;;;;;;;5047767;22;20067;-75
2022/03/26 11:39:44;;;;;;;18.42;8.00;;;;;;;;;;5029980;28;20135;-75
2022/03/26 11:42:15;;;;;;;19.10;8.48;;;;;;;;;;5054944;28;20130;-75
2022/03/26 11:50:40;;;;;;;15.93;7.80;;;;;;;;;;5032379;28;20158;-75
2022/03/26 11:50:54;;;;;;;15.85;7.72;;;;;;;;;;5011689;28;20059;-75
2022/03/26 11:53:35;;;;;;;11.80;6.40;;;;;;;;;;5040977;28;20069;-82
2022/03/26 11:56:03;;;;;;;15.77;7.68;;;;;;;;;;5046017;28;20053;-82
2022/03/26 11:58:31;;;;;;;11.88;6.88;;;;;;;;;;5041393;28;20050;-82
2022/03/26 12:00:59;;;;;;;16.20;6.60;;;;;;;;;;5047067;28;20132;-83
2022/03/26 12:03:26;;;;;;;15.60;7.55;;;;;;;;;;5048661;28;20049;-82
2022/03/26 12:08:53;;;;;;;13.23;6.57;;;;;;;;;;5045063;28;20379;-83
2022/03/26 12:11:21;;;;;;;20.73;7.30;;;;;;;;;;5043498;28;20041;-83
2022/03/26 12:14:00;;;;;;;15.98;6.80;;;;;;;;;;5044219;28;20040;-83
2022/03/26 12:16:47;;;;;;;12.60;7.20;;;;;;;;;;5046673;28;20056;-82
2022/03/26 12:19:34;;;;;;;15.15;6.80;;;;;;;;;;5037700;28;20813;-75
2022/03/26 12:22:34;;;;;;;13.23;6.18;;;;;;;;;;5031534;28;20136;-75
2022/03/26 12:25:02;;;;;;;17.05;6.50;;;;;;;;;;5006109;28;20148;-75
2022/03/26 12:27:29;;;;;;;11.50;6.00;;;;;;;;;;5043668;28;20049;-75
2022/03/26 12:29:58;;;;;;;11.23;6.22;;;;;;;;;;5033257;28;20053;-75
2022/03/26 12:32:32;;;;;;;12.50;5.75;;;;;;;;;;5029297;28;20049;-75
2022/03/26 12:35:05;;;;;;;12.27;6.45;;;;;;;;;;5027802;28;20467;-75
2022/03/26 12:37:35;;;;;;;12.73;5.90;;;;;;;;;;5031471;28;20967;-75
2022/03/26 12:40:05;;;;;;;10.70;5.32;;;;;;;;;;5036947;28;20155;-75
2022/03/26 12:43:01;;;;;;;13.88;5.60;;;;;;;;;;5054026;28;20049;-75
2022/03/26 12:45:30;;;;;;;9.63;5.30;;;;;;;;;;5040087;28;20081;-75
2022/03/26 12:47:57;;;;;;;12.63;6.30;;;;;;;;;;5034947;28;20473;-78
2022/03/26 12:50:28;;;;;;;10.85;6.03;;;;;;;;;;5037716;28;20122;-76
2022/03/26 12:52:55;;;;;;;12.05;5.38;;;;;;;;;;5032202;28;20179;-78
2022/03/26 12:55:23;;;;;;;17.33;5.50;;;;;;;;;;5039814;28;20103;-76
2022/03/26 13:00:36;;;;;;;9.48;4.88;;;;;;;;;;5034218;28;21622;-77
2022/03/26 13:03:06;;;;;;;10.20;5.30;;;;;;;;;;5035825;28;20068;-77
2022/03/26 13:05:35;;;;;;;10.80;4.97;;;;;;;;;;5038902;28;20137;-77
2022/03/26 13:08:02;;;;;;;13.80;5.40;;;;;;;;;;5029079;28;20057;-78
2022/03/26 13:11:04;;;;;;;6.50;4.78;;;;;;;;;;5030766;28;20394;-76
2022/03/26 13:16:55;;;;;;;10.88;4.60;;;;;;;;;;5044079;28;20044;-87
2022/03/26 13:19:23;;;;;;;8.23;3.97;;;;;;;;;;5055649;28;20045;-77
2022/03/26 13:22:14;;;;;;;8.13;5.03;;;;;;;;;;5045716;28;20452;-84
2022/03/26 13:24:55;;;;;;;11.60;5.10;;;;;;;;;;5044924;28;20045;-80
2022/03/26 13:27:23;;;;;;;10.40;5.32;;;;;;;;;;5056008;28;20049;-85
2022/03/26 13:29:50;;;;;;;9.13;4.80;;;;;;;;;;5033210;28;20774;-83
2022/03/26 13:32:18;;;;;;;11.52;5.43;;;;;;;;;;5057143;28;20167;-86
2022/03/26 13:34:47;;;;;;;6.38;3.90;;;;;;;;;;5058445;28;20046;-74
2022/03/26 13:37:15;;;;;;;9.13;4.75;;;;;;;;;;5065490;28;20060;-75
2022/03/26 13:39:45;;;;;;;6.97;4.53;;;;;;;;;;5034332;28;20049;-76
2022/03/26 13:42:20;;;;;;;7.90;4.78;;;;;;;;;;5030910;28;20056;-77
2022/03/26 13:44:48;;;;;;;5.70;4.07;;;;;;;;;;5058355;28;20132;-74
2022/03/26 13:47:17;;;;;;;7.45;4.10;;;;;;;;;;5046078;28;20065;-86
2022/03/26 13:49:45;;;;;;;8.05;4.55;;;;;;;;;;5041245;28;20464;-87
2022/03/26 13:52:29;;;;;;;7.18;3.95;;;;;;;;;;5063840;28;20737;-90
2022/03/26 13:54:57;;;;;;;13.18;4.88;;;;;;;;;;5044580;28;20056;-79
2022/03/26 13:57:31;;;;;;;6.95;4.22;;;;;;;;;;5056518;28;20747;-80
2022/03/26 14:00:04;;;;;;;7.35;3.97;;;;;;;;;;5038094;28;20061;-77
2022/03/26 14:02:34;;;;;;;9.02;4.80;;;;;;;;;;5028879;28;20081;-76
2022/03/26 14:05:01;;;;;;;7.70;3.75;;;;;;;;;;5029463;28;20148;-77
2022/03/26 14:07:29;;;;;;;9.00;4.50;;;;;;;;;;5052320;28;20865;-77
2022/03/26 14:09:56;;;;;;;8.07;4.20;;;;;;;;;;5028784;28;20052;-78
2022/03/26 14:12:23;;;;;;;8.07;3.97;;;;;;;;;;5032191;28;20048;-78
2022/03/26 14:14:51;;;;;;;10.55;4.18;;;;;;;;;;5031632;28;20041;-79
2022/03/26 14:17:18;;;;;;;7.25;4.50;;;;;;;;;;5053387;28;20919;-79
2022/03/26 14:19:45;;;;;;;7.50;4.13;;;;;;;;;;5052241;28;20211;-77
2022/03/26 14:22:13;;;;;;;6.65;4.05;;;;;;;;;;5056975;28;20111;-78
2022/03/26 14:24:41;;;;;;;7.38;4.10;;;;;;;;;;5052016;28;20138;-76
2022/03/26 14:27:08;;;;;;;6.65;4.32;;;;;;;;;;5056359;28;20471;-91
2022/03/26 14:29:35;;;;;;;8.18;4.97;;;;;;;;;;5051514;28;20073;-90
2022/03/26 14:32:03;;;;;;;5.30;3.95;;;;;;;;;;5037375;28;20056;-91
2022/03/26 14:34:30;;;;;;;5.75;3.95;;;;;;;;;;5039435;28;20045;-90
2022/03/26 14:36:58;;;;;;;8.50;4.10;;;;;;;;;;5044330;28;20084;-91
2022/03/26 14:39:25;;;;;;;7.72;4.50;;;;;;;;;;5040854;28;20486;-91
2022/03/26 14:41:53;;;;;;;9.35;4.45;;;;;;;;;;5041537;28;20061;-86
2022/03/26 14:44:22;;;;;;;6.82;4.00;;;;;;;;;;5063155;28;20134;-86
2022/03/26 14:46:52;;;;;;;7.30;4.35;;;;;;;;;;5060905;28;20060;-86
2022/03/26 14:49:21;;;;;;;6.75;3.80;;;;;;;;;;5049967;28;20061;-84
2022/03/26 14:51:52;;;;;;;9.68;4.20;;;;;;;;;;5054805;28;20045;-85
2022/03/26 14:54:24;;;;;;;7.03;4.53;;;;;;;;;;5043202;28;20049;-86
2022/03/26 14:56:54;;;;;;;14.50;4.28;;;;;;;;;;5058344;28;20069;-86
2022/03/26 14:59:22;;;;;;;8.30;3.53;;;;;;;;;;5037805;28;20049;-86
2022/03/26 15:01:53;;;;;;;7.07;3.90;;;;;;;;;;5050589;28;20076;-86
2022/03/26 15:04:21;;;;;;;8.60;3.80;;;;;;;;;;5067096;22;20056;-76
2022/03/26 15:06:48;;;;;;;7.55;4.88;;;;;;;;;;5022845;28;20046;-76
2022/03/26 15:09:16;;;;;;;8.13;3.97;;;;;;;;;;5019562;28;20045;-76
2022/03/26 15:11:43;;;;;;;6.13;3.42;;;;;;;;;;5015312;28;20111;-76
2022/03/26 15:14:10;;;;;;;5.88;4.53;;;;;;;;;;5018440;28;20066;-76
2022/03/26 15:16:37;;;;;;;7.70;3.70;;;;;;;;;;5019005;28;20140;-77
2022/03/26 15:19:05;;;;;;;6.15;3.80;;;;;;;;;;5019160;28;20057;-76
2022/03/26 15:21:32;;;;;;;6.60;4.43;;;;;;;;;;5023216;28;20148;-80
2022/03/26 15:23:59;;;;;;;5.47;4.07;;;;;;;;;;5021628;28;20150;-80
2022/03/26 15:26:27;;;;;;;8.70;4.13;;;;;;;;;;5022788;28;20056;-75
2022/03/26 15:28:54;;;;;;;6.18;3.90;;;;;;;;;;5020361;28;20639;-75
2022/03/26 15:31:21;;;;;;;6.53;3.70;;;;;;;;;;5021645;28;20140;-75
2022/03/26 15:33:50;;;;;;;8.82;5.20;;;;;;;;;;5020546;28;20056;-75